Giuseppe Padre — ILLU2 — position and weather

sailwx.info

Track history (hours):
 
Tides and Currents Weather Stations Pressure Air Temp Water Temp Dewpoint Dewpoint Depression Visibility Wind Speed Wind Dir Waves Ship Positions

Giuseppe Padre

Last reported at 2017-Dec-13 08:19 UTC. Time now 2018-Jan-20 21:06 UTC.
Position N 39°41' E 016°52'.
Warning: this ship's position is 38 days out of date.

Type: Fishing. MMSI: 247130060.

Date/timePositionNaut miles runAvg speedWind from/ knotsBaromVisibWave heightAir tempDewpointWater temp
2017-Dec-13 08:19N 39°41' E 016°52'1 2.5
2017-Dec-13 07:58N 39°41' E 016°51'1 2.5
2017-Dec-13 07:30N 39°42' E 016°49'2 3.3
2017-Dec-13 07:00N 39°42' E 016°47'0 0.0
2017-Dec-11 14:17N 39°42' E 016°47'  
2017-Dec-08 11:10N 39°38' E 016°57'6 0.2
2017-Dec-07 07:13N 39°41' E 016°50'7 1.6
2017-Dec-07 02:46N 39°38' E 016°58'3 8.7
2017-Dec-07 02:27N 39°35' E 016°58'  
2017-Dec-04 10:02N 39°56' E 016°45'1 2.4
2017-Dec-04 09:47N 39°56' E 016°45'1 2.4
2017-Dec-04 09:16N 39°55' E 016°43'1 2.4
2017-Dec-04 08:48N 39°54' E 016°42'10 2.2
2017-Dec-04 04:17N 39°44' E 016°45'3 2.2
2017-Dec-04 03:03N 39°42' E 016°47'1 2.5
2017-Dec-04 02:43N 39°42' E 016°48'1 2.5
2017-Dec-04 02:30N 39°42' E 016°49'  
Track history (hours):
 
Tides and Currents Weather Stations Pressure Air Temp Water Temp Dewpoint Dewpoint Depression Visibility Wind Speed Wind Dir Waves Ship Positions

Giuseppe Padre

Last reported at 2017-Dec-13 08:19 UTC. Time now 2018-Jan-20 21:06 UTC.
Position N 39°41' E 016°52'.
Warning: this ship's position is 38 days out of date.

Type: Fishing. MMSI: 247130060.

Date/timePositionNaut miles runAvg speedWind from/ knotsBaromVisibWave heightAir tempDewpointWater temp
2017-Dec-13 08:19N 39°41' E 016°52'1 2.5
2017-Dec-13 07:58N 39°41' E 016°51'1 2.5
2017-Dec-13 07:30N 39°42' E 016°49'2 3.3
2017-Dec-13 07:00N 39°42' E 016°47'0 0.0
2017-Dec-11 14:17N 39°42' E 016°47'  
2017-Dec-08 11:10N 39°38' E 016°57'6 0.2
2017-Dec-07 07:13N 39°41' E 016°50'7 1.6
2017-Dec-07 02:46N 39°38' E 016°58'3 8.7
2017-Dec-07 02:27N 39°35' E 016°58'  
2017-Dec-04 10:02N 39°56' E 016°45'1 2.4
2017-Dec-04 09:47N 39°56' E 016°45'1 2.4
2017-Dec-04 09:16N 39°55' E 016°43'1 2.4
2017-Dec-04 08:48N 39°54' E 016°42'10 2.2
2017-Dec-04 04:17N 39°44' E 016°45'3 2.2
2017-Dec-04 03:03N 39°42' E 016°47'1 2.5
2017-Dec-04 02:43N 39°42' E 016°48'1 2.5
2017-Dec-04 02:30N 39°42' E 016°49'  

Dump ship's entire track history